sensor_id;sensor_type;location;lat;lon;timestamp;P1;durP1;ratioP1;P2;durP2;ratioP2
47161;SDS011;32921;53.256;8.198;2023-09-19T00:00:27;326.52;;;295.63;;
47161;SDS011;32921;53.256;8.198;2023-09-19T00:02:54;319.02;;;288.73;;
47161;SDS011;32921;53.256;8.198;2023-09-19T00:05:24;323.30;;;292.65;;
47161;SDS011;32921;53.256;8.198;2023-09-19T00:07:53;331.42;;;300.20;;
47161;SDS011;32921;53.256;8.198;2023-09-19T00:10:19;330.23;;;298.85;;
47161;SDS011;32921;53.256;8.198;2023-09-19T00:12:46;370.60;;;336.10;;
47161;SDS011;32921;53.256;8.198;2023-09-19T00:15:12;350.52;;;317.90;;
47161;SDS011;32921;53.256;8.198;2023-09-19T00:17:42;361.45;;;327.83;;
47161;SDS011;32921;53.256;8.198;2023-09-19T00:20:08;357.75;;;323.15;;
47161;SDS011;32921;53.256;8.198;2023-09-19T00:22:41;323.90;;;294.05;;
47161;SDS011;32921;53.256;8.198;2023-09-19T00:25:10;348.25;;;315.23;;
47161;SDS011;32921;53.256;8.198;2023-09-19T00:27:39;346.80;;;314.20;;
47161;SDS011;32921;53.256;8.198;2023-09-19T00:30:08;373.38;;;338.88;;
47161;SDS011;32921;53.256;8.198;2023-09-19T00:32:41;324.27;;;294.60;;
47161;SDS011;32921;53.256;8.198;2023-09-19T00:35:07;342.25;;;309.83;;
47161;SDS011;32921;53.256;8.198;2023-09-19T00:37:34;357.02;;;323.75;;
47161;SDS011;32921;53.256;8.198;2023-09-19T00:40:01;349.30;;;316.88;;
47161;SDS011;32921;53.256;8.198;2023-09-19T00:42:29;355.35;;;322.10;;
47161;SDS011;32921;53.256;8.198;2023-09-19T00:44:55;356.95;;;323.40;;
47161;SDS011;32921;53.256;8.198;2023-09-19T00:47:21;350.00;;;317.38;;
47161;SDS011;32921;53.256;8.198;2023-09-19T00:49:47;367.27;;;333.25;;
47161;SDS011;32921;53.256;8.198;2023-09-19T00:52:17;341.70;;;310.65;;
47161;SDS011;32921;53.256;8.198;2023-09-19T00:54:47;331.65;;;301.45;;
47161;SDS011;32921;53.256;8.198;2023-09-19T00:57:14;361.42;;;327.98;;
47161;SDS011;32921;53.256;8.198;2023-09-19T00:59:40;346.73;;;314.52;;
47161;SDS011;32921;53.256;8.198;2023-09-19T01:02:07;311.73;;;284.27;;
47161;SDS011;32921;53.256;8.198;2023-09-19T01:04:33;361.27;;;328.52;;
47161;SDS011;32921;53.256;8.198;2023-09-19T01:06:59;318.92;;;290.13;;
47161;SDS011;32921;53.256;8.198;2023-09-19T01:09:25;358.90;;;326.60;;
47161;SDS011;32921;53.256;8.198;2023-09-19T01:11:52;349.42;;;317.13;;
47161;SDS011;32921;53.256;8.198;2023-09-19T01:14:33;335.65;;;305.13;;
47161;SDS011;32921;53.256;8.198;2023-09-19T01:17:05;344.65;;;313.13;;
47161;SDS011;32921;53.256;8.198;2023-09-19T01:22:14;356.08;;;323.95;;
47161;SDS011;32921;53.256;8.198;2023-09-19T01:30:13;344.05;;;313.58;;
47161;SDS011;32921;53.256;8.198;2023-09-19T01:32:40;358.17;;;325.35;;
47161;SDS011;32921;53.256;8.198;2023-09-19T01:35:08;332.20;;;302.13;;
47161;SDS011;32921;53.256;8.198;2023-09-19T01:37:37;387.40;;;352.48;;
47161;SDS011;32921;53.256;8.198;2023-09-19T01:40:04;382.60;;;348.55;;
47161;SDS011;32921;53.256;8.198;2023-09-19T01:42:50;365.25;;;333.13;;
47161;SDS011;32921;53.256;8.198;2023-09-19T01:47:53;315.83;;;288.23;;
47161;SDS011;32921;53.256;8.198;2023-09-19T01:50:29;365.65;;;333.85;;
47161;SDS011;32921;53.256;8.198;2023-09-19T01:53:06;340.77;;;310.83;;
47161;SDS011;32921;53.256;8.198;2023-09-19T01:55:35;369.85;;;337.83;;
47161;SDS011;32921;53.256;8.198;2023-09-19T01:58:06;360.85;;;330.00;;
47161;SDS011;32921;53.256;8.198;2023-09-19T02:00:35;349.40;;;319.27;;
47161;SDS011;32921;53.256;8.198;2023-09-19T02:03:02;357.92;;;327.42;;
47161;SDS011;32921;53.256;8.198;2023-09-19T02:05:28;335.63;;;307.15;;
47161;SDS011;32921;53.256;8.198;2023-09-19T02:07:54;326.30;;;298.45;;
47161;SDS011;32921;53.256;8.198;2023-09-19T02:10:21;325.75;;;297.90;;
47161;SDS011;32921;53.256;8.198;2023-09-19T02:12:48;346.70;;;316.90;;
47161;SDS011;32921;53.256;8.198;2023-09-19T02:15:14;336.52;;;307.85;;
47161;SDS011;32921;53.256;8.198;2023-09-19T02:17:41;314.88;;;288.35;;
47161;SDS011;32921;53.256;8.198;2023-09-19T02:20:08;317.58;;;290.98;;
47161;SDS011;32921;53.256;8.198;2023-09-19T02:22:35;301.25;;;276.15;;
47161;SDS011;32921;53.256;8.198;2023-09-19T02:25:01;340.38;;;311.48;;
47161;SDS011;32921;53.256;8.198;2023-09-19T02:27:26;341.60;;;311.55;;
47161;SDS011;32921;53.256;8.198;2023-09-19T02:29:52;306.67;;;281.08;;
47161;SDS011;32921;53.256;8.198;2023-09-19T02:32:18;284.05;;;260.80;;
47161;SDS011;32921;53.256;8.198;2023-09-19T02:34:43;310.63;;;285.40;;
47161;SDS011;32921;53.256;8.198;2023-09-19T02:37:10;319.02;;;292.42;;
47161;SDS011;32921;53.256;8.198;2023-09-19T02:39:35;289.48;;;266.15;;
47161;SDS011;32921;53.256;8.198;2023-09-19T02:42:01;320.42;;;294.88;;
47161;SDS011;32921;53.256;8.198;2023-09-19T02:44:29;298.63;;;274.63;;
47161;SDS011;32921;53.256;8.198;2023-09-19T02:46:54;294.70;;;271.23;;
47161;SDS011;32921;53.256;8.198;2023-09-19T02:49:21;254.82;;;234.88;;
47161;SDS011;32921;53.256;8.198;2023-09-19T02:51:47;256.15;;;236.00;;
47161;SDS011;32921;53.256;8.198;2023-09-19T02:54:13;265.08;;;244.30;;
47161;SDS011;32921;53.256;8.198;2023-09-19T02:56:38;253.82;;;234.18;;
47161;SDS011;32921;53.256;8.198;2023-09-19T02:59:04;253.25;;;234.30;;
47161;SDS011;32921;53.256;8.198;2023-09-19T03:01:30;257.67;;;237.90;;
47161;SDS011;32921;53.256;8.198;2023-09-19T03:03:57;257.52;;;237.95;;
47161;SDS011;32921;53.256;8.198;2023-09-19T03:06:23;227.07;;;210.75;;
47161;SDS011;32921;53.256;8.198;2023-09-19T03:08:49;219.90;;;203.93;;
47161;SDS011;32921;53.256;8.198;2023-09-19T03:11:16;210.02;;;194.68;;
47161;SDS011;32921;53.256;8.198;2023-09-19T03:13:50;192.02;;;178.20;;
47161;SDS011;32921;53.256;8.198;2023-09-19T03:16:16;197.05;;;182.43;;
47161;SDS011;32921;53.256;8.198;2023-09-19T03:18:42;205.55;;;190.63;;
47161;SDS011;32921;53.256;8.198;2023-09-19T03:21:07;177.50;;;164.48;;
47161;SDS011;32921;53.256;8.198;2023-09-19T03:23:33;176.85;;;163.95;;
47161;SDS011;32921;53.256;8.198;2023-09-19T03:25:58;177.48;;;164.57;;
47161;SDS011;32921;53.256;8.198;2023-09-19T03:28:24;159.95;;;148.63;;
47161;SDS011;32921;53.256;8.198;2023-09-19T03:31:03;166.32;;;154.65;;
47161;SDS011;32921;53.256;8.198;2023-09-19T03:33:30;138.65;;;129.15;;
47161;SDS011;32921;53.256;8.198;2023-09-19T03:35:57;173.23;;;160.93;;
47161;SDS011;32921;53.256;8.198;2023-09-19T03:38:24;155.20;;;144.55;;
47161;SDS011;32921;53.256;8.198;2023-09-19T03:40:50;163.32;;;151.73;;
47161;SDS011;32921;53.256;8.198;2023-09-19T03:43:15;146.07;;;135.85;;
47161;SDS011;32921;53.256;8.198;2023-09-19T03:45:41;153.68;;;142.88;;
47161;SDS011;32921;53.256;8.198;2023-09-19T03:48:10;163.52;;;152.25;;
47161;SDS011;32921;53.256;8.198;2023-09-19T03:50:36;147.45;;;136.88;;
47161;SDS011;32921;53.256;8.198;2023-09-19T03:53:02;147.00;;;136.27;;
47161;SDS011;32921;53.256;8.198;2023-09-19T03:55:28;164.73;;;152.70;;
47161;SDS011;32921;53.256;8.198;2023-09-19T03:57:57;156.80;;;146.13;;
47161;SDS011;32921;53.256;8.198;2023-09-19T04:00:23;160.10;;;149.07;;
47161;SDS011;32921;53.256;8.198;2023-09-19T04:02:51;155.00;;;144.02;;
47161;SDS011;32921;53.256;8.198;2023-09-19T04:05:17;164.48;;;152.95;;
47161;SDS011;32921;53.256;8.198;2023-09-19T04:07:43;148.35;;;137.88;;
47161;SDS011;32921;53.256;8.198;2023-09-19T04:10:09;166.15;;;153.68;;
47161;SDS011;32921;53.256;8.198;2023-09-19T04:12:39;179.35;;;166.43;;
47161;SDS011;32921;53.256;8.198;2023-09-19T04:15:05;177.95;;;165.10;;
47161;SDS011;32921;53.256;8.198;2023-09-19T04:17:32;175.82;;;163.23;;
47161;SDS011;32921;53.256;8.198;2023-09-19T04:19:58;184.20;;;171.07;;
47161;SDS011;32921;53.256;8.198;2023-09-19T04:22:24;184.23;;;170.80;;
47161;SDS011;32921;53.256;8.198;2023-09-19T04:24:50;174.25;;;161.88;;
47161;SDS011;32921;53.256;8.198;2023-09-19T04:27:16;173.15;;;160.70;;
47161;SDS011;32921;53.256;8.198;2023-09-19T04:29:43;192.88;;;178.73;;
47161;SDS011;32921;53.256;8.198;2023-09-19T04:32:09;183.07;;;169.88;;
47161;SDS011;32921;53.256;8.198;2023-09-19T04:34:37;192.82;;;178.88;;
47161;SDS011;32921;53.256;8.198;2023-09-19T04:37:06;181.40;;;168.15;;
47161;SDS011;32921;53.256;8.198;2023-09-19T04:39:32;194.60;;;180.50;;
47161;SDS011;32921;53.256;8.198;2023-09-19T04:41:59;190.50;;;176.68;;
47161;SDS011;32921;53.256;8.198;2023-09-19T04:44:25;164.57;;;152.82;;
47161;SDS011;32921;53.256;8.198;2023-09-19T04:46:51;156.48;;;145.15;;
47161;SDS011;32921;53.256;8.198;2023-09-19T04:49:17;182.88;;;169.48;;
47161;SDS011;32921;53.256;8.198;2023-09-19T04:51:43;160.73;;;149.13;;
47161;SDS011;32921;53.256;8.198;2023-09-19T04:54:11;150.10;;;139.50;;
47161;SDS011;32921;53.256;8.198;2023-09-19T04:56:38;192.10;;;177.82;;
47161;SDS011;32921;53.256;8.198;2023-09-19T04:59:05;164.38;;;151.95;;
47161;SDS011;32921;53.256;8.198;2023-09-19T05:01:31;155.68;;;144.75;;
47161;SDS011;32921;53.256;8.198;2023-09-19T05:03:57;165.88;;;153.63;;
47161;SDS011;32921;53.256;8.198;2023-09-19T05:06:23;152.93;;;142.07;;
47161;SDS011;32921;53.256;8.198;2023-09-19T05:08:51;153.80;;;142.88;;
47161;SDS011;32921;53.256;8.198;2023-09-19T05:11:21;165.55;;;153.20;;
47161;SDS011;32921;53.256;8.198;2023-09-19T05:13:48;170.93;;;158.35;;
47161;SDS011;32921;53.256;8.198;2023-09-19T05:16:18;164.73;;;152.93;;
47161;SDS011;32921;53.256;8.198;2023-09-19T05:18:44;188.30;;;174.27;;
47161;SDS011;32921;53.256;8.198;2023-09-19T05:21:10;222.45;;;205.60;;
47161;SDS011;32921;53.256;8.198;2023-09-19T05:23:37;193.45;;;178.63;;
47161;SDS011;32921;53.256;8.198;2023-09-19T05:26:03;217.95;;;200.93;;
47161;SDS011;32921;53.256;8.198;2023-09-19T05:28:30;228.23;;;210.40;;
47161;SDS011;32921;53.256;8.198;2023-09-19T05:30:57;243.82;;;224.75;;
47161;SDS011;32921;53.256;8.198;2023-09-19T05:33:26;237.88;;;219.30;;
47161;SDS011;32921;53.256;8.198;2023-09-19T05:35:52;204.93;;;189.27;;
47161;SDS011;32921;53.256;8.198;2023-09-19T05:38:18;207.52;;;191.30;;
47161;SDS011;32921;53.256;8.198;2023-09-19T05:40:45;224.68;;;206.95;;
47161;SDS011;32921;53.256;8.198;2023-09-19T05:43:12;212.10;;;195.38;;
47161;SDS011;32921;53.256;8.198;2023-09-19T05:45:39;224.05;;;206.38;;
47161;SDS011;32921;53.256;8.198;2023-09-19T05:48:09;231.35;;;212.43;;
47161;SDS011;32921;53.256;8.198;2023-09-19T05:50:36;216.43;;;199.10;;
47161;SDS011;32921;53.256;8.198;2023-09-19T05:53:02;231.35;;;212.75;;
47161;SDS011;32921;53.256;8.198;2023-09-19T05:55:29;256.85;;;235.85;;
47161;SDS011;32921;53.256;8.198;2023-09-19T05:57:55;202.95;;;186.95;;
47161;SDS011;32921;53.256;8.198;2023-09-19T06:00:22;253.07;;;232.90;;
47161;SDS011;32921;53.256;8.198;2023-09-19T06:02:51;236.43;;;216.95;;
47161;SDS011;32921;53.256;8.198;2023-09-19T06:05:18;260.25;;;238.70;;
47161;SDS011;32921;53.256;8.198;2023-09-19T06:07:44;245.23;;;224.88;;
47161;SDS011;32921;53.256;8.198;2023-09-19T06:10:12;258.13;;;236.30;;
47161;SDS011;32921;53.256;8.198;2023-09-19T06:12:47;285.88;;;261.83;;
47161;SDS011;32921;53.256;8.198;2023-09-19T06:15:13;264.98;;;242.88;;
47161;SDS011;32921;53.256;8.198;2023-09-19T06:17:49;255.57;;;234.75;;
47161;SDS011;32921;53.256;8.198;2023-09-19T06:20:16;258.23;;;237.27;;
47161;SDS011;32921;53.256;8.198;2023-09-19T06:22:42;247.02;;;226.60;;
47161;SDS011;32921;53.256;8.198;2023-09-19T06:25:13;266.02;;;244.40;;
47161;SDS011;32921;53.256;8.198;2023-09-19T06:27:46;283.67;;;259.27;;
47161;SDS011;32921;53.256;8.198;2023-09-19T06:30:12;258.70;;;238.07;;
47161;SDS011;32921;53.256;8.198;2023-09-19T06:32:39;255.60;;;235.23;;
47161;SDS011;32921;53.256;8.198;2023-09-19T06:35:08;280.35;;;257.17;;
47161;SDS011;32921;53.256;8.198;2023-09-19T06:37:36;254.68;;;234.07;;
47161;SDS011;32921;53.256;8.198;2023-09-19T06:40:08;268.80;;;247.27;;
47161;SDS011;32921;53.256;8.198;2023-09-19T06:42:39;240.27;;;221.30;;
47161;SDS011;32921;53.256;8.198;2023-09-19T06:45:05;281.67;;;258.42;;
47161;SDS011;32921;53.256;8.198;2023-09-19T06:47:32;269.02;;;246.82;;
47161;SDS011;32921;53.256;8.198;2023-09-19T06:49:58;300.83;;;275.98;;
47161;SDS011;32921;53.256;8.198;2023-09-19T06:52:24;273.30;;;250.43;;
47161;SDS011;32921;53.256;8.198;2023-09-19T06:54:52;259.08;;;237.90;;
47161;SDS011;32921;53.256;8.198;2023-09-19T06:57:18;268.35;;;245.90;;
47161;SDS011;32921;53.256;8.198;2023-09-19T06:59:45;302.55;;;276.55;;
47161;SDS011;32921;53.256;8.198;2023-09-19T07:02:11;293.27;;;267.25;;
47161;SDS011;32921;53.256;8.198;2023-09-19T07:04:38;254.82;;;233.00;;
47161;SDS011;32921;53.256;8.198;2023-09-19T07:07:04;290.40;;;264.92;;
47161;SDS011;32921;53.256;8.198;2023-09-19T07:09:30;267.45;;;243.85;;
47161;SDS011;32921;53.256;8.198;2023-09-19T07:11:56;245.45;;;223.32;;
47161;SDS011;32921;53.256;8.198;2023-09-19T07:14:22;236.07;;;215.27;;
47161;SDS011;32921;53.256;8.198;2023-09-19T07:16:48;271.67;;;247.68;;
47161;SDS011;32921;53.256;8.198;2023-09-19T07:19:15;274.75;;;251.32;;
47161;SDS011;32921;53.256;8.198;2023-09-19T07:21:41;296.23;;;271.55;;
47161;SDS011;32921;53.256;8.198;2023-09-19T07:24:07;242.98;;;223.45;;
47161;SDS011;32921;53.256;8.198;2023-09-19T07:26:33;245.95;;;226.65;;
47161;SDS011;32921;53.256;8.198;2023-09-19T07:29:00;300.63;;;277.20;;
47161;SDS011;32921;53.256;8.198;2023-09-19T07:31:28;297.65;;;274.90;;
47161;SDS011;32921;53.256;8.198;2023-09-19T07:33:55;371.13;;;344.27;;
47161;SDS011;32921;53.256;8.198;2023-09-19T07:36:21;390.27;;;363.10;;
47161;SDS011;32921;53.256;8.198;2023-09-19T07:38:49;351.98;;;327.95;;
47161;SDS011;32921;53.256;8.198;2023-09-19T07:41:14;347.90;;;324.10;;
47161;SDS011;32921;53.256;8.198;2023-09-19T07:43:40;349.80;;;326.02;;
47161;SDS011;32921;53.256;8.198;2023-09-19T07:46:06;345.42;;;322.00;;
47161;SDS011;32921;53.256;8.198;2023-09-19T07:48:33;385.92;;;359.42;;
47161;SDS011;32921;53.256;8.198;2023-09-19T07:51:06;332.88;;;309.38;;
47161;SDS011;32921;53.256;8.198;2023-09-19T07:53:34;343.57;;;320.10;;
47161;SDS011;32921;53.256;8.198;2023-09-19T07:56:03;344.42;;;320.08;;
47161;SDS011;32921;53.256;8.198;2023-09-19T07:58:30;337.55;;;313.55;;
47161;SDS011;32921;53.256;8.198;2023-09-19T08:00:56;335.83;;;311.65;;
47161;SDS011;32921;53.256;8.198;2023-09-19T08:03:27;284.73;;;264.35;;
47161;SDS011;32921;53.256;8.198;2023-09-19T08:05:52;303.17;;;281.55;;
47161;SDS011;32921;53.256;8.198;2023-09-19T08:08:18;312.27;;;290.17;;
47161;SDS011;32921;53.256;8.198;2023-09-19T08:10:43;265.30;;;246.75;;
47161;SDS011;32921;53.256;8.198;2023-09-19T08:13:10;255.80;;;238.50;;
47161;SDS011;32921;53.256;8.198;2023-09-19T08:15:42;227.40;;;211.95;;
47161;SDS011;32921;53.256;8.198;2023-09-19T08:18:09;250.27;;;232.93;;
47161;SDS011;32921;53.256;8.198;2023-09-19T08:20:37;231.00;;;215.32;;
47161;SDS011;32921;53.256;8.198;2023-09-19T08:23:03;239.98;;;222.80;;
47161;SDS011;32921;53.256;8.198;2023-09-19T08:25:28;230.07;;;214.73;;
47161;SDS011;32921;53.256;8.198;2023-09-19T08:27:54;214.32;;;199.88;;
47161;SDS011;32921;53.256;8.198;2023-09-19T08:30:23;219.60;;;204.45;;
47161;SDS011;32921;53.256;8.198;2023-09-19T08:33:01;197.65;;;184.00;;
47161;SDS011;32921;53.256;8.198;2023-09-19T08:35:29;195.10;;;181.90;;
47161;SDS011;32921;53.256;8.198;2023-09-19T08:37:55;197.63;;;183.98;;
47161;SDS011;32921;53.256;8.198;2023-09-19T08:40:21;206.40;;;191.85;;
47161;SDS011;32921;53.256;8.198;2023-09-19T08:42:48;208.57;;;194.23;;
47161;SDS011;32921;53.256;8.198;2023-09-19T08:45:20;213.82;;;199.00;;
47161;SDS011;32921;53.256;8.198;2023-09-19T08:48:30;202.50;;;188.27;;
47161;SDS011;32921;53.256;8.198;2023-09-19T08:50:43;203.15;;;188.75;;
47161;SDS011;32921;53.256;8.198;2023-09-19T08:56:08;204.57;;;190.02;;
47161;SDS011;32921;53.256;8.198;2023-09-19T08:58:39;198.57;;;184.95;;
47161;SDS011;32921;53.256;8.198;2023-09-19T09:01:14;186.65;;;173.65;;
47161;SDS011;32921;53.256;8.198;2023-09-19T09:03:41;208.65;;;192.98;;
47161;SDS011;32921;53.256;8.198;2023-09-19T09:06:12;201.35;;;186.80;;
47161;SDS011;32921;53.256;8.198;2023-09-19T09:08:40;196.65;;;182.13;;
47161;SDS011;32921;53.256;8.198;2023-09-19T09:11:06;203.65;;;188.30;;
47161;SDS011;32921;53.256;8.198;2023-09-19T09:13:33;212.13;;;196.40;;
47161;SDS011;32921;53.256;8.198;2023-09-19T09:16:01;225.10;;;208.00;;
47161;SDS011;32921;53.256;8.198;2023-09-19T09:18:27;210.10;;;194.07;;
47161;SDS011;32921;53.256;8.198;2023-09-19T09:20:56;205.48;;;189.15;;
47161;SDS011;32921;53.256;8.198;2023-09-19T09:23:22;219.82;;;203.77;;
47161;SDS011;32921;53.256;8.198;2023-09-19T09:25:52;223.57;;;206.63;;
47161;SDS011;32921;53.256;8.198;2023-09-19T09:28:26;225.55;;;208.68;;
47161;SDS011;32921;53.256;8.198;2023-09-19T09:30:53;207.23;;;191.00;;
47161;SDS011;32921;53.256;8.198;2023-09-19T09:33:20;238.23;;;218.55;;
47161;SDS011;32921;53.256;8.198;2023-09-19T09:35:58;242.35;;;223.52;;
47161;SDS011;32921;53.256;8.198;2023-09-19T09:38:47;216.27;;;200.13;;
47161;SDS011;32921;53.256;8.198;2023-09-19T09:41:20;207.73;;;192.02;;
47161;SDS011;32921;53.256;8.198;2023-09-19T09:44:12;218.45;;;201.82;;
47161;SDS011;32921;53.256;8.198;2023-09-19T09:46:42;219.07;;;202.40;;
47161;SDS011;32921;53.256;8.198;2023-09-19T09:49:14;222.07;;;204.15;;
47161;SDS011;32921;53.256;8.198;2023-09-19T09:52:01;198.88;;;182.38;;
47161;SDS011;32921;53.256;8.198;2023-09-19T09:54:32;218.48;;;200.88;;
47161;SDS011;32921;53.256;8.198;2023-09-19T09:57:07;208.18;;;192.95;;
47161;SDS011;32921;53.256;8.198;2023-09-19T10:02:12;204.80;;;188.48;;
47161;SDS011;32921;53.256;8.198;2023-09-19T10:04:39;209.68;;;194.50;;
47161;SDS011;32921;53.256;8.198;2023-09-19T10:07:24;219.63;;;202.18;;
47161;SDS011;32921;53.256;8.198;2023-09-19T10:09:57;226.85;;;206.80;;
47161;SDS011;32921;53.256;8.198;2023-09-19T10:12:31;207.07;;;191.73;;
47161;SDS011;32921;53.256;8.198;2023-09-19T10:15:00;276.65;;;252.23;;
47161;SDS011;32921;53.256;8.198;2023-09-19T10:17:29;199.23;;;185.27;;
47161;SDS011;32921;53.256;8.198;2023-09-19T10:19:57;205.77;;;190.70;;
47161;SDS011;32921;53.256;8.198;2023-09-19T10:22:24;210.02;;;194.85;;
47161;SDS011;32921;53.256;8.198;2023-09-19T10:24:53;242.18;;;223.00;;
47161;SDS011;32921;53.256;8.198;2023-09-19T10:27:19;220.52;;;203.20;;
47161;SDS011;32921;53.256;8.198;2023-09-19T10:29:45;243.65;;;223.90;;
47161;SDS011;32921;53.256;8.198;2023-09-19T10:32:19;243.40;;;221.02;;
47161;SDS011;32921;53.256;8.198;2023-09-19T10:34:49;281.65;;;255.15;;
47161;SDS011;32921;53.256;8.198;2023-09-19T10:37:18;293.90;;;264.65;;
47161;SDS011;32921;53.256;8.198;2023-09-19T10:39:50;325.83;;;291.13;;
47161;SDS011;32921;53.256;8.198;2023-09-19T10:42:19;325.08;;;290.60;;
47161;SDS011;32921;53.256;8.198;2023-09-19T10:44:45;305.08;;;275.95;;
47161;SDS011;32921;53.256;8.198;2023-09-19T10:47:18;280.30;;;255.02;;
47161;SDS011;32921;53.256;8.198;2023-09-19T10:49:45;289.08;;;261.13;;
47161;SDS011;32921;53.256;8.198;2023-09-19T10:52:12;297.08;;;266.98;;
47161;SDS011;32921;53.256;8.198;2023-09-19T10:54:51;338.38;;;306.67;;
47161;SDS011;32921;53.256;8.198;2023-09-19T10:57:23;293.42;;;265.60;;
47161;SDS011;32921;53.256;8.198;2023-09-19T11:00:23;320.83;;;289.23;;
47161;SDS011;32921;53.256;8.198;2023-09-19T11:05:36;296.23;;;267.30;;
47161;SDS011;32921;53.256;8.198;2023-09-19T11:08:09;359.85;;;321.75;;
47161;SDS011;32921;53.256;8.198;2023-09-19T11:13:29;354.20;;;316.23;;
47161;SDS011;32921;53.256;8.198;2023-09-19T11:16:02;373.65;;;335.02;;
47161;SDS011;32921;53.256;8.198;2023-09-19T11:26:43;357.45;;;319.77;;
47161;SDS011;32921;53.256;8.198;2023-09-19T11:31:54;367.05;;;327.08;;
47161;SDS011;32921;53.256;8.198;2023-09-19T11:37:02;396.25;;;354.35;;
47161;SDS011;32921;53.256;8.198;2023-09-19T11:39:31;362.60;;;323.27;;
47161;SDS011;32921;53.256;8.198;2023-09-19T11:41:58;328.35;;;281.17;;
47161;SDS011;32921;53.256;8.198;2023-09-19T11:46:55;392.40;;;347.88;;
47161;SDS011;32921;53.256;8.198;2023-09-19T11:49:30;433.20;;;384.95;;
47161;SDS011;32921;53.256;8.198;2023-09-19T11:51:58;411.38;;;354.20;;
47161;SDS011;32921;53.256;8.198;2023-09-19T11:54:33;409.85;;;359.73;;
47161;SDS011;32921;53.256;8.198;2023-09-19T11:57:01;475.58;;;402.17;;
47161;SDS011;32921;53.256;8.198;2023-09-19T11:59:28;425.40;;;366.77;;
47161;SDS011;32921;53.256;8.198;2023-09-19T12:01:58;505.25;;;427.05;;
47161;SDS011;32921;53.256;8.198;2023-09-19T12:04:43;504.60;;;449.02;;
47161;SDS011;32921;53.256;8.198;2023-09-19T12:07:13;605.58;;;543.53;;
47161;SDS011;32921;53.256;8.198;2023-09-19T12:09:40;730.05;;;653.90;;
47161;SDS011;32921;53.256;8.198;2023-09-19T12:12:27;708.65;;;634.47;;
47161;SDS011;32921;53.256;8.198;2023-09-19T12:14:53;690.53;;;615.75;;
47161;SDS011;32921;53.256;8.198;2023-09-19T12:17:22;724.00;;;647.28;;
47161;SDS011;32921;53.256;8.198;2023-09-19T12:19:52;711.00;;;637.25;;
47161;SDS011;32921;53.256;8.198;2023-09-19T12:22:19;693.70;;;621.65;;
47161;SDS011;32921;53.256;8.198;2023-09-19T12:24:47;695.20;;;623.10;;
47161;SDS011;32921;53.256;8.198;2023-09-19T12:27:13;686.83;;;615.78;;
47161;SDS011;32921;53.256;8.198;2023-09-19T12:29:42;692.03;;;621.90;;
47161;SDS011;32921;53.256;8.198;2023-09-19T12:32:15;654.28;;;587.88;;
47161;SDS011;32921;53.256;8.198;2023-09-19T12:34:42;694.55;;;622.33;;
47161;SDS011;32921;53.256;8.198;2023-09-19T12:37:15;698.53;;;627.42;;
47161;SDS011;32921;53.256;8.198;2023-09-19T12:39:45;731.00;;;652.97;;
47161;SDS011;32921;53.256;8.198;2023-09-19T12:42:14;717.38;;;640.85;;
47161;SDS011;32921;53.256;8.198;2023-09-19T12:44:42;703.45;;;630.17;;
47161;SDS011;32921;53.256;8.198;2023-09-19T12:47:13;748.97;;;667.58;;
47161;SDS011;32921;53.256;8.198;2023-09-19T12:52:38;722.88;;;647.08;;
47161;SDS011;32921;53.256;8.198;2023-09-19T12:55:18;763.13;;;679.60;;
47161;SDS011;32921;53.256;8.198;2023-09-19T13:03:11;580.67;;;521.65;;
47161;SDS011;32921;53.256;8.198;2023-09-19T13:06:00;538.85;;;482.67;;
47161;SDS011;32921;53.256;8.198;2023-09-19T13:08:34;555.35;;;496.38;;
47161;SDS011;32921;53.256;8.198;2023-09-19T13:13:37;657.60;;;556.55;;
47161;SDS011;32921;53.256;8.198;2023-09-19T13:21:10;365.25;;;328.13;;
47161;SDS011;32921;53.256;8.198;2023-09-19T13:23:51;338.73;;;303.75;;
47161;SDS011;32921;53.256;8.198;2023-09-19T13:26:19;348.50;;;314.63;;
47161;SDS011;32921;53.256;8.198;2023-09-19T13:28:45;370.67;;;334.23;;
47161;SDS011;32921;53.256;8.198;2023-09-19T13:31:12;418.45;;;376.10;;
47161;SDS011;32921;53.256;8.198;2023-09-19T13:33:42;441.42;;;395.13;;
47161;SDS011;32921;53.256;8.198;2023-09-19T13:38:37;409.33;;;369.25;;
47161;SDS011;32921;53.256;8.198;2023-09-19T13:41:02;405.50;;;362.58;;
47161;SDS011;32921;53.256;8.198;2023-09-19T13:43:28;397.75;;;357.85;;
47161;SDS011;32921;53.256;8.198;2023-09-19T13:45:54;399.27;;;357.98;;
47161;SDS011;32921;53.256;8.198;2023-09-19T13:48:19;371.60;;;334.80;;
47161;SDS011;32921;53.256;8.198;2023-09-19T13:50:47;343.38;;;308.25;;
47161;SDS011;32921;53.256;8.198;2023-09-19T13:53:13;323.85;;;292.73;;
47161;SDS011;32921;53.256;8.198;2023-09-19T13:55:39;316.38;;;284.65;;
47161;SDS011;32921;53.256;8.198;2023-09-19T13:58:05;303.73;;;273.30;;
47161;SDS011;32921;53.256;8.198;2023-09-19T14:00:31;336.45;;;303.40;;
47161;SDS011;32921;53.256;8.198;2023-09-19T14:02:59;295.98;;;267.83;;
47161;SDS011;32921;53.256;8.198;2023-09-19T14:05:26;280.67;;;252.90;;
47161;SDS011;32921;53.256;8.198;2023-09-19T14:07:52;306.10;;;277.58;;
47161;SDS011;32921;53.256;8.198;2023-09-19T14:10:17;253.57;;;231.43;;
47161;SDS011;32921;53.256;8.198;2023-09-19T14:12:46;255.88;;;233.30;;
47161;SDS011;32921;53.256;8.198;2023-09-19T14:15:12;250.60;;;228.93;;
47161;SDS011;32921;53.256;8.198;2023-09-19T14:17:39;279.85;;;257.08;;
47161;SDS011;32921;53.256;8.198;2023-09-19T14:20:07;274.08;;;250.48;;
47161;SDS011;32921;53.256;8.198;2023-09-19T14:22:35;262.65;;;238.73;;
47161;SDS011;32921;53.256;8.198;2023-09-19T14:25:01;238.95;;;217.88;;
47161;SDS011;32921;53.256;8.198;2023-09-19T14:27:28;271.50;;;246.90;;
47161;SDS011;32921;53.256;8.198;2023-09-19T14:29:53;259.80;;;235.73;;
47161;SDS011;32921;53.256;8.198;2023-09-19T14:32:19;256.60;;;233.10;;
47161;SDS011;32921;53.256;8.198;2023-09-19T14:34:44;246.02;;;223.32;;
47161;SDS011;32921;53.256;8.198;2023-09-19T14:37:10;260.83;;;236.88;;
47161;SDS011;32921;53.256;8.198;2023-09-19T14:39:36;257.90;;;234.30;;
47161;SDS011;32921;53.256;8.198;2023-09-19T14:42:04;247.10;;;225.55;;
47161;SDS011;32921;53.256;8.198;2023-09-19T14:44:30;279.40;;;255.02;;
47161;SDS011;32921;53.256;8.198;2023-09-19T14:46:55;253.52;;;231.63;;
47161;SDS011;32921;53.256;8.198;2023-09-19T14:49:21;257.60;;;234.55;;
47161;SDS011;32921;53.256;8.198;2023-09-19T14:51:46;283.13;;;259.02;;
47161;SDS011;32921;53.256;8.198;2023-09-19T14:54:13;264.08;;;243.13;;
47161;SDS011;32921;53.256;8.198;2023-09-19T14:56:41;275.30;;;254.55;;
47161;SDS011;32921;53.256;8.198;2023-09-19T14:59:07;274.98;;;252.10;;